Cowley, Wyoming
Current Conditions -  °F | °C
As of 7:35 PM on Saturday 25 Oct 2014 (Local Time) from KU68 Reporting Station
Clear Clear  
Wind Chill: 64°   Ceiling: Unl
Heat Index: 64°   Visibility: 10mi
Dew Point: 21°   Wind: 5mph
Humidity: 19%   Direction: 150°SSE
Pressure: 29.74"   Gusts: NA
Location:  44.88°N, 108.47°W
Report Text: KU68 260135Z AUTO 15004KT 10SM CLR 18/M06 A2974 RMK AO2 PWINO
Loading
Personal Weather Stations






























Interactive Weather Map
Tropical Storm Tracking
New forecast layout! Learn more

10-Day Weather Forecast

Advertisements
Track Severe Weather on mobile